Etusivu
METAR-TAF:

METAR-TAF

Lentoasemat :

Calgary-Springbank, Alberta, Kanada

Leveyspiiri: 51-06N, Pituuspiiri: 114-22W, korkeus merenpinnasta: 1200 m

Tämänhetkinen sää

Tämä raportti tehtiin 34 minuuttia sitten, kello 22.00 UTC
Tuuli 22 kn lännestä puuskistuen 28 kn:hen
Lämpötila 13°C
Kosteus 22%
Ilmanpaine 1011 hPa
Näkyvyys: 14.5 km
selkeää

METAR: CYBW 202200Z AUTO 26022G28KT 9SM CLR 13/M08 A2986 RMK SLP139 DENSITY ALT 4600FT

Aika: 15:34 (22:34 UTC)

Sääennuste

Tämä raportti tehtiin 24 minuuttia sitten, kello 22.10 UTC
Ennuste voimassa 20. päivästä klo 22 UTC - 21. päivään klo 05 UTC
Tuuli 18 kn lännestä puuskistuen 28 kn:hen
Näkyvyys: 10 km
selkeää

TAF: CYBW 202210Z 2022/2105 26018G28KT P6SM SKC RMK FCST BASED ON AUTO OBS. NXT FCST BY 210000Z

Säähavainnot ja -ennusteet yli 4000 lentoasemalta (METAR- ja TAF-raportit).

Käytössä olevat sääasemat on merkitty karttaan keltaisilla ja punaisilla pisteillä.

Aseta hiiri pisteen päälle nähdäksesi sääaseman nimen.

Klikkaa sitten nähdäksesi säähavainnot ja -ennusteet.

Kartan vaihtaminen: klikkaa mustalla rastilla varustettuja vihreitä pisteitä, niin voit zoomata sisään; viivalla varustettua vihreää pistettä, niin voit zoomata ulos tai vihreitä nuolia, niin pääset viereisille kartoille.


METAR-TAF: